sensor_id;sensor_type;location;lat;lon;timestamp;pressure;altitude;pressure_sealevel;temperature;humidity
19624;BME280;9959;49.798;9.928;2023-05-20T00:01:51;99929.69;;;13.64;73.04
19624;BME280;9959;49.798;9.928;2023-05-20T00:04:18;99929.91;;;13.63;73.17
19624;BME280;9959;49.798;9.928;2023-05-20T00:06:46;99923.44;;;13.64;73.35
19624;BME280;9959;49.798;9.928;2023-05-20T00:09:13;99926.97;;;13.64;73.52
19624;BME280;9959;49.798;9.928;2023-05-20T00:11:39;99927.59;;;13.66;73.19
19624;BME280;9959;49.798;9.928;2023-05-20T00:14:06;99928.47;;;13.60;73.82
19624;BME280;9959;49.798;9.928;2023-05-20T00:16:33;99921.13;;;13.67;73.50
19624;BME280;9959;49.798;9.928;2023-05-20T00:19:00;99926.97;;;13.64;73.61
19624;BME280;9959;49.798;9.928;2023-05-20T00:21:27;99930.72;;;13.63;73.62
19624;BME280;9959;49.798;9.928;2023-05-20T00:23:55;99916.75;;;13.66;73.47
19624;BME280;9959;49.798;9.928;2023-05-20T00:26:22;99920.03;;;13.68;73.58
19624;BME280;9959;49.798;9.928;2023-05-20T00:28:48;99916.28;;;13.69;73.76
19624;BME280;9959;49.798;9.928;2023-05-20T00:31:15;99920.03;;;13.68;73.44
19624;BME280;9959;49.798;9.928;2023-05-20T00:33:42;99907.09;;;13.70;73.35
19624;BME280;9959;49.798;9.928;2023-05-20T00:36:09;99910.03;;;13.69;73.69
19624;BME280;9959;49.798;9.928;2023-05-20T00:38:36;99901.56;;;13.65;73.95
19624;BME280;9959;49.798;9.928;2023-05-20T00:41:02;99907.19;;;13.64;73.88
19624;BME280;9959;49.798;9.928;2023-05-20T00:43:29;99898.38;;;13.68;74.08
19624;BME280;9959;49.798;9.928;2023-05-20T00:45:56;99906.75;;;13.67;73.97
19624;BME280;9959;49.798;9.928;2023-05-20T00:48:23;99901.34;;;13.67;74.07
19624;BME280;9959;49.798;9.928;2023-05-20T00:50:50;99901.09;;;13.68;74.09
19624;BME280;9959;49.798;9.928;2023-05-20T00:53:17;99892.13;;;13.68;74.28
19624;BME280;9959;49.798;9.928;2023-05-20T00:55:44;99888.03;;;13.65;74.37
19624;BME280;9959;49.798;9.928;2023-05-20T00:58:11;99892.97;;;13.68;74.29
19624;BME280;9959;49.798;9.928;2023-05-20T01:00:38;99884.84;;;13.68;74.33
19624;BME280;9959;49.798;9.928;2023-05-20T01:03:05;99882.59;;;13.65;74.57
19624;BME280;9959;49.798;9.928;2023-05-20T01:05:32;99889.91;;;13.65;74.66
19624;BME280;9959;49.798;9.928;2023-05-20T01:08:00;99881.56;;;13.66;74.59
19624;BME280;9959;49.798;9.928;2023-05-20T01:10:27;99887.91;;;13.72;74.62
19624;BME280;9959;49.798;9.928;2023-05-20T01:12:57;99888.16;;;13.70;74.89
19624;BME280;9959;49.798;9.928;2023-05-20T01:15:27;99881.69;;;13.71;74.66
19624;BME280;9959;49.798;9.928;2023-05-20T01:17:58;99885.81;;;13.74;74.74
19624;BME280;9959;49.798;9.928;2023-05-20T01:20:28;99881.59;;;13.78;74.71
19624;BME280;9959;49.798;9.928;2023-05-20T01:22:58;99887.84;;;13.78;74.68
19624;BME280;9959;49.798;9.928;2023-05-20T01:25:25;99878.44;;;13.81;74.50
19624;BME280;9959;49.798;9.928;2023-05-20T01:27:53;99873.72;;;13.76;75.03
19624;BME280;9959;49.798;9.928;2023-05-20T01:30:21;99873.25;;;13.79;74.93
19624;BME280;9959;49.798;9.928;2023-05-20T01:32:52;99874.09;;;13.80;74.94
19624;BME280;9959;49.798;9.928;2023-05-20T01:35:21;99878.22;;;13.82;74.45
19624;BME280;9959;49.798;9.928;2023-05-20T01:37:49;99867.00;;;13.79;74.78
19624;BME280;9959;49.798;9.928;2023-05-20T01:40:18;99868.00;;;13.84;74.69
19624;BME280;9959;49.798;9.928;2023-05-20T01:42:45;99871.16;;;13.81;75.39
19624;BME280;9959;49.798;9.928;2023-05-20T01:45:19;99873.84;;;13.81;75.35
19624;BME280;9959;49.798;9.928;2023-05-20T01:47:46;99871.59;;;13.78;75.32
19624;BME280;9959;49.798;9.928;2023-05-20T01:50:13;99873.84;;;13.81;75.35
19624;BME280;9959;49.798;9.928;2023-05-20T01:52:40;99871.16;;;13.81;75.33
19624;BME280;9959;49.798;9.928;2023-05-20T01:55:07;99879.44;;;13.86;75.04
19624;BME280;9959;49.798;9.928;2023-05-20T01:57:34;99880.34;;;13.80;75.53
19624;BME280;9959;49.798;9.928;2023-05-20T02:00:01;99869.72;;;13.79;75.55
19624;BME280;9959;49.798;9.928;2023-05-20T02:02:28;99871.16;;;13.81;75.53
19624;BME280;9959;49.798;9.928;2023-05-20T02:04:55;99872.81;;;13.82;75.65
19624;BME280;9959;49.798;9.928;2023-05-20T02:07:22;99864.09;;;13.80;75.65
19624;BME280;9959;49.798;9.928;2023-05-20T02:09:49;99863.47;;;13.78;75.90
19624;BME280;9959;49.798;9.928;2023-05-20T02:12:16;99864.53;;;13.77;75.83
19624;BME280;9959;49.798;9.928;2023-05-20T02:14:45;99866.19;;;13.78;75.77
19624;BME280;9959;49.798;9.928;2023-05-20T02:17:13;99866.19;;;13.78;76.07
19624;BME280;9959;49.798;9.928;2023-05-20T02:19:42;99867.84;;;13.79;76.30
19624;BME280;9959;49.798;9.928;2023-05-20T02:22:10;99866.19;;;13.78;76.07
19624;BME280;9959;49.798;9.928;2023-05-20T02:24:37;99862.88;;;13.76;76.46
19624;BME280;9959;49.798;9.928;2023-05-20T02:27:04;99868.22;;;13.83;76.11
19624;BME280;9959;49.798;9.928;2023-05-20T02:29:31;99858.50;;;13.75;76.54
19624;BME280;9959;49.798;9.928;2023-05-20T02:31:58;99854.16;;;13.74;76.50
19624;BME280;9959;49.798;9.928;2023-05-20T02:34:26;99851.66;;;13.73;76.84
19624;BME280;9959;49.798;9.928;2023-05-20T02:36:53;99846.47;;;13.71;76.79
19624;BME280;9959;49.798;9.928;2023-05-20T02:39:20;99850.38;;;13.75;76.65
19624;BME280;9959;49.798;9.928;2023-05-20T02:41:47;99849.94;;;13.78;76.77
19624;BME280;9959;49.798;9.928;2023-05-20T02:44:14;99852.94;;;13.70;77.31
19624;BME280;9959;49.798;9.928;2023-05-20T02:46:41;99843.78;;;13.71;77.04
19624;BME280;9959;49.798;9.928;2023-05-20T02:49:07;99841.91;;;13.72;77.27
19624;BME280;9959;49.798;9.928;2023-05-20T02:51:35;99845.53;;;13.66;77.59
19624;BME280;9959;49.798;9.928;2023-05-20T02:54:02;99849.41;;;13.70;77.29
19624;BME280;9959;49.798;9.928;2023-05-20T02:56:29;99844.81;;;13.70;77.49
19624;BME280;9959;49.798;9.928;2023-05-20T02:58:58;99843.16;;;13.69;77.64
19624;BME280;9959;49.798;9.928;2023-05-20T03:01:25;99841.50;;;13.68;78.08
19624;BME280;9959;49.798;9.928;2023-05-20T03:03:52;99837.97;;;13.68;77.87
19624;BME280;9959;49.798;9.928;2023-05-20T03:06:19;99840.94;;;13.66;78.09
19624;BME280;9959;49.798;9.928;2023-05-20T03:08:46;99844.09;;;13.63;78.53
19624;BME280;9959;49.798;9.928;2023-05-20T03:11:13;99848.00;;;13.67;78.28
19624;BME280;9959;49.798;9.928;2023-05-20T03:13:40;99840.94;;;13.66;78.43
19624;BME280;9959;49.798;9.928;2023-05-20T03:16:07;99846.34;;;13.66;78.33
19624;BME280;9959;49.798;9.928;2023-05-20T03:18:33;99842.13;;;13.70;78.41
19624;BME280;9959;49.798;9.928;2023-05-20T03:21:01;99836.94;;;13.69;78.49
19624;BME280;9959;49.798;9.928;2023-05-20T03:23:28;99844.56;;;13.60;78.88
19624;BME280;9959;49.798;9.928;2023-05-20T03:25:55;99845.75;;;13.64;78.97
19624;BME280;9959;49.798;9.928;2023-05-20T03:28:21;99847.03;;;13.62;78.81
19624;BME280;9959;49.798;9.928;2023-05-20T03:30:48;99845.16;;;13.62;79.13
19624;BME280;9959;49.798;9.928;2023-05-20T03:33:15;99852.22;;;13.63;78.89
19624;BME280;9959;49.798;9.928;2023-05-20T03:35:42;99848.91;;;13.61;79.21
19624;BME280;9959;49.798;9.928;2023-05-20T03:38:09;99852.22;;;13.63;78.92
19624;BME280;9959;49.798;9.928;2023-05-20T03:40:36;99857.25;;;13.60;79.54
19624;BME280;9959;49.798;9.928;2023-05-20T03:43:02;99858.09;;;13.60;79.55
19624;BME280;9959;49.798;9.928;2023-05-20T03:45:29;99864.94;;;13.63;79.56
19624;BME280;9959;49.798;9.928;2023-05-20T03:47:56;99854.34;;;13.61;79.40
19624;BME280;9959;49.798;9.928;2023-05-20T03:50:23;99862.28;;;13.56;79.67
19624;BME280;9959;49.798;9.928;2023-05-20T03:52:50;99863.56;;;13.53;80.14
19624;BME280;9959;49.798;9.928;2023-05-20T03:55:17;99860.78;;;13.60;79.80
19624;BME280;9959;49.798;9.928;2023-05-20T03:57:46;99860.19;;;13.58;79.93
19624;BME280;9959;49.798;9.928;2023-05-20T04:00:13;99855.97;;;13.62;79.61
19624;BME280;9959;49.798;9.928;2023-05-20T04:02:40;99853.94;;;13.58;80.07
19624;BME280;9959;49.798;9.928;2023-05-20T04:05:07;99861.84;;;13.59;80.00
19624;BME280;9959;49.798;9.928;2023-05-20T04:07:35;99863.50;;;13.60;79.85
19624;BME280;9959;49.798;9.928;2023-05-20T04:10:03;99858.53;;;13.57;80.19
19624;BME280;9959;49.798;9.928;2023-05-20T04:12:30;99858.91;;;13.61;80.04
19624;BME280;9959;49.798;9.928;2023-05-20T04:15:01;99855.16;;;13.62;79.91
19624;BME280;9959;49.798;9.928;2023-05-20T04:17:29;99862.44;;;13.61;79.85
19624;BME280;9959;49.798;9.928;2023-05-20T04:19:56;99868.84;;;13.67;79.76
19624;BME280;9959;49.798;9.928;2023-05-20T04:22:25;99870.13;;;13.64;79.88
19624;BME280;9959;49.798;9.928;2023-05-20T04:24:53;99859.91;;;13.66;79.89
19624;BME280;9959;49.798;9.928;2023-05-20T04:27:20;99862.13;;;13.69;79.79
19624;BME280;9959;49.798;9.928;2023-05-20T04:29:47;99859.63;;;13.68;80.00
19624;BME280;9959;49.798;9.928;2023-05-20T04:32:17;99859.63;;;13.68;79.68
19624;BME280;9959;49.798;9.928;2023-05-20T04:34:47;99857.91;;;13.73;79.81
19624;BME280;9959;49.798;9.928;2023-05-20T04:37:15;99858.84;;;13.67;79.77
19624;BME280;9959;49.798;9.928;2023-05-20T04:39:41;99856.13;;;13.67;80.30
19624;BME280;9959;49.798;9.928;2023-05-20T04:42:09;99851.66;;;13.73;79.85
19624;BME280;9959;49.798;9.928;2023-05-20T04:44:36;99859.13;;;13.77;79.55
19624;BME280;9959;49.798;9.928;2023-05-20T04:47:07;99856.25;;;13.72;79.99
19624;BME280;9959;49.798;9.928;2023-05-20T04:49:34;99856.41;;;13.77;79.51
19624;BME280;9959;49.798;9.928;2023-05-20T04:52:01;99852.41;;;13.80;79.61
19624;BME280;9959;49.798;9.928;2023-05-20T04:54:28;99853.19;;;13.87;79.29
19624;BME280;9959;49.798;9.928;2023-05-20T04:56:55;99855.34;;;13.78;79.68
19624;BME280;9959;49.798;9.928;2023-05-20T04:59:22;99853.91;;;13.94;78.97
19624;BME280;9959;49.798;9.928;2023-05-20T05:01:49;99853.78;;;13.89;79.04
19624;BME280;9959;49.798;9.928;2023-05-20T05:04:17;99854.75;;;13.95;79.01
19624;BME280;9959;49.798;9.928;2023-05-20T05:06:43;99854.38;;;13.91;79.10
19624;BME280;9959;49.798;9.928;2023-05-20T05:09:10;99849.00;;;14.03;78.74
19624;BME280;9959;49.798;9.928;2023-05-20T05:11:39;99855.47;;;14.02;78.16
19624;BME280;9959;49.798;9.928;2023-05-20T05:14:06;99855.47;;;14.02;78.42
19624;BME280;9959;49.798;9.928;2023-05-20T05:16:33;99851.69;;;14.03;78.71
19624;BME280;9959;49.798;9.928;2023-05-20T05:19:00;99840.69;;;14.16;77.79
19624;BME280;9959;49.798;9.928;2023-05-20T05:21:27;99843.69;;;14.38;77.36
19624;BME280;9959;49.798;9.928;2023-05-20T05:23:54;99843.34;;;14.34;77.14
19624;BME280;9959;49.798;9.928;2023-05-20T05:26:24;99837.44;;;14.37;76.88
19624;BME280;9959;49.798;9.928;2023-05-20T05:28:53;99841.53;;;14.46;76.46
19624;BME280;9959;49.798;9.928;2023-05-20T05:31:20;99835.28;;;14.28;77.18
19624;BME280;9959;49.798;9.928;2023-05-20T05:33:47;99829.84;;;14.16;77.49
19624;BME280;9959;49.798;9.928;2023-05-20T05:36:15;99824.44;;;14.16;77.69
19624;BME280;9959;49.798;9.928;2023-05-20T05:38:43;99822.78;;;14.15;77.64
19624;BME280;9959;49.798;9.928;2023-05-20T05:41:10;99827.16;;;14.16;78.01
19624;BME280;9959;49.798;9.928;2023-05-20T05:43:37;99831.28;;;14.18;77.67
19624;BME280;9959;49.798;9.928;2023-05-20T05:46:04;99827.00;;;14.41;76.99
19624;BME280;9959;49.798;9.928;2023-05-20T05:48:31;99817.22;;;14.51;76.80
19624;BME280;9959;49.798;9.928;2023-05-20T05:50:57;99820.34;;;14.67;75.86
19624;BME280;9959;49.798;9.928;2023-05-20T05:53:24;99811.97;;;15.03;74.44
19624;BME280;9959;49.798;9.928;2023-05-20T05:55:51;99818.81;;;14.94;74.67
19624;BME280;9959;49.798;9.928;2023-05-20T05:58:18;99821.16;;;14.90;74.79
19624;BME280;9959;49.798;9.928;2023-05-20T06:00:45;99822.00;;;14.91;75.50
19624;BME280;9959;49.798;9.928;2023-05-20T06:03:12;99808.66;;;15.13;74.63
19624;BME280;9959;49.798;9.928;2023-05-20T06:05:39;99802.41;;;15.12;74.24
19624;BME280;9959;49.798;9.928;2023-05-20T06:08:06;99806.13;;;15.46;73.19
19624;BME280;9959;49.798;9.928;2023-05-20T06:10:33;99803.28;;;15.53;72.63
19624;BME280;9959;49.798;9.928;2023-05-20T06:12:59;99803.41;;;15.46;72.85
19624;BME280;9959;49.798;9.928;2023-05-20T06:15:26;99807.13;;;15.05;73.86
19624;BME280;9959;49.798;9.928;2023-05-20T06:17:53;99805.53;;;15.33;73.01
19624;BME280;9959;49.798;9.928;2023-05-20T06:20:20;99790.28;;;15.55;71.90
19624;BME280;9959;49.798;9.928;2023-05-20T06:22:47;99803.53;;;15.40;72.70
19624;BME280;9959;49.798;9.928;2023-05-20T06:25:14;99807.53;;;15.49;71.85
19624;BME280;9959;49.798;9.928;2023-05-20T06:27:41;99805.91;;;15.36;73.11
19624;BME280;9959;49.798;9.928;2023-05-20T06:30:08;99806.06;;;15.18;73.64
19624;BME280;9959;49.798;9.928;2023-05-20T06:32:35;99812.91;;;15.09;74.34
19624;BME280;9959;49.798;9.928;2023-05-20T06:35:02;99821.19;;;15.02;74.48
19624;BME280;9959;49.798;9.928;2023-05-20T06:37:29;99800.63;;;15.06;74.51
19624;BME280;9959;49.798;9.928;2023-05-20T06:39:56;99806.41;;;15.21;73.76
19624;BME280;9959;49.798;9.928;2023-05-20T06:42:22;99806.75;;;15.25;74.03
19624;BME280;9959;49.798;9.928;2023-05-20T06:44:49;99810.88;;;15.28;73.75
19624;BME280;9959;49.798;9.928;2023-05-20T06:47:16;99809.63;;;15.70;72.33
19624;BME280;9959;49.798;9.928;2023-05-20T06:49:43;99810.50;;;15.47;73.17
19624;BME280;9959;49.798;9.928;2023-05-20T06:52:13;99810.50;;;15.59;72.48
19624;BME280;9959;49.798;9.928;2023-05-20T06:54:40;99809.78;;;15.92;70.93
19624;BME280;9959;49.798;9.928;2023-05-20T06:57:07;99804.91;;;16.22;70.08
19624;BME280;9959;49.798;9.928;2023-05-20T06:59:35;99800.38;;;16.28;69.37
19624;BME280;9959;49.798;9.928;2023-05-20T07:02:02;99800.19;;;16.18;69.01
19624;BME280;9959;49.798;9.928;2023-05-20T07:04:30;99794.66;;;16.58;67.64
19624;BME280;9959;49.798;9.928;2023-05-20T07:06:57;99799.84;;;16.59;67.13
19624;BME280;9959;49.798;9.928;2023-05-20T07:09:23;99785.91;;;16.73;66.50
19624;BME280;9959;49.798;9.928;2023-05-20T07:11:51;99785.19;;;16.94;66.04
19624;BME280;9959;49.798;9.928;2023-05-20T07:14:18;99771.66;;;16.82;65.99
19624;BME280;9959;49.798;9.928;2023-05-20T07:16:45;99777.13;;;17.21;64.76
19624;BME280;9959;49.798;9.928;2023-05-20T07:19:13;99778.44;;;17.62;63.73
19624;BME280;9959;49.798;9.928;2023-05-20T07:21:40;99768.63;;;17.17;65.03
19624;BME280;9959;49.798;9.928;2023-05-20T07:24:07;99777.03;;;17.81;62.69
19624;BME280;9959;49.798;9.928;2023-05-20T07:26:34;99772.09;;;17.35;63.50
19624;BME280;9959;49.798;9.928;2023-05-20T07:29:05;99759.69;;;17.44;63.63
19624;BME280;9959;49.798;9.928;2023-05-20T07:31:32;99762.03;;;17.79;62.39
19624;BME280;9959;49.798;9.928;2023-05-20T07:33:59;99765.88;;;17.61;62.50
19624;BME280;9959;49.798;9.928;2023-05-20T07:36:26;99760.53;;;17.66;62.08
19624;BME280;9959;49.798;9.928;2023-05-20T07:38:53;99757.56;;;17.46;62.00
19624;BME280;9959;49.798;9.928;2023-05-20T07:41:30;99742.13;;;17.78;61.51
19624;BME280;9959;49.798;9.928;2023-05-20T07:43:57;99742.69;;;17.80;61.40
19624;BME280;9959;49.798;9.928;2023-05-20T07:46:24;99740.44;;;17.99;60.76
19624;BME280;9959;49.798;9.928;2023-05-20T07:48:51;99730.22;;;17.63;61.56
19624;BME280;9959;49.798;9.928;2023-05-20T07:51:18;99735.00;;;17.72;61.66
19624;BME280;9959;49.798;9.928;2023-05-20T07:53:45;99739.31;;;17.68;61.86
19624;BME280;9959;49.798;9.928;2023-05-20T07:56:12;99737.13;;;17.26;63.58
19624;BME280;9959;49.798;9.928;2023-05-20T07:58:42;99738.91;;;17.38;63.07
19624;BME280;9959;49.798;9.928;2023-05-20T08:01:09;99749.88;;;17.65;62.47
19624;BME280;9959;49.798;9.928;2023-05-20T08:03:35;99744.28;;;18.30;60.06
19624;BME280;9959;49.798;9.928;2023-05-20T08:06:03;99735.03;;;18.36;59.11
19624;BME280;9959;49.798;9.928;2023-05-20T08:08:29;99745.81;;;18.53;59.28
19624;BME280;9959;49.798;9.928;2023-05-20T08:10:56;99739.59;;;18.57;58.67
19624;BME280;9959;49.798;9.928;2023-05-20T08:13:23;99738.78;;;18.99;57.25
19624;BME280;9959;49.798;9.928;2023-05-20T08:15:54;99737.53;;;18.11;59.88
19624;BME280;9959;49.798;9.928;2023-05-20T08:18:21;99732.13;;;18.80;58.22
19624;BME280;9959;49.798;9.928;2023-05-20T08:20:48;99735.13;;;18.83;56.85
19624;BME280;9959;49.798;9.928;2023-05-20T08:23:15;99744.16;;;18.52;57.88
19624;BME280;9959;49.798;9.928;2023-05-20T08:25:42;99737.22;;;19.18;56.29
19624;BME280;9959;49.798;9.928;2023-05-20T08:28:12;99732.56;;;19.09;56.05
19624;BME280;9959;49.798;9.928;2023-05-20T08:30:39;99745.75;;;18.80;56.60
19624;BME280;9959;49.798;9.928;2023-05-20T08:33:07;99729.50;;;18.26;59.00
19624;BME280;9959;49.798;9.928;2023-05-20T08:35:34;99740.66;;;18.56;58.22
19624;BME280;9959;49.798;9.928;2023-05-20T08:38:01;99729.66;;;18.14;59.29
19624;BME280;9959;49.798;9.928;2023-05-20T08:40:28;99730.44;;;18.10;59.52
19624;BME280;9959;49.798;9.928;2023-05-20T08:42:55;99723.34;;;18.09;59.04
19624;BME280;9959;49.798;9.928;2023-05-20T08:45:24;99724.09;;;18.31;59.11
19624;BME280;9959;49.798;9.928;2023-05-20T08:47:54;99735.75;;;17.95;59.52
19624;BME280;9959;49.798;9.928;2023-05-20T08:50:21;99725.69;;;18.27;59.13
19624;BME280;9959;49.798;9.928;2023-05-20T08:52:48;99726.81;;;19.10;56.23
19624;BME280;9959;49.798;9.928;2023-05-20T08:55:23;99723.28;;;19.15;55.22
19624;BME280;9959;49.798;9.928;2023-05-20T08:57:53;99719.38;;;19.58;53.74
19624;BME280;9959;49.798;9.928;2023-05-20T09:00:21;99715.63;;;20.25;51.88
19624;BME280;9959;49.798;9.928;2023-05-20T09:02:54;99710.22;;;20.50;51.83
19624;BME280;9959;49.798;9.928;2023-05-20T09:05:25;99706.31;;;19.85;52.97
19624;BME280;9959;49.798;9.928;2023-05-20T09:08:03;99707.69;;;19.88;53.18
19624;BME280;9959;49.798;9.928;2023-05-20T09:10:31;99702.53;;;20.17;51.70
19624;BME280;9959;49.798;9.928;2023-05-20T09:13:03;99695.41;;;20.36;51.57
19624;BME280;9959;49.798;9.928;2023-05-20T09:15:31;99712.09;;;20.04;52.73
19624;BME280;9959;49.798;9.928;2023-05-20T09:18:03;99709.63;;;20.74;50.25
19624;BME280;9959;49.798;9.928;2023-05-20T09:20:33;99701.41;;;20.79;50.75
19624;BME280;9959;49.798;9.928;2023-05-20T09:23:01;99700.31;;;20.75;50.84
19624;BME280;9959;49.798;9.928;2023-05-20T09:25:28;99693.97;;;20.84;50.67
19624;BME280;9959;49.798;9.928;2023-05-20T09:27:55;99688.94;;;21.76;49.04
19624;BME280;9959;49.798;9.928;2023-05-20T09:30:23;99694.56;;;21.51;48.89
19624;BME280;9959;49.798;9.928;2023-05-20T09:32:54;99684.00;;;21.73;48.22
19624;BME280;9959;49.798;9.928;2023-05-20T09:35:23;99679.22;;;21.50;49.68
19624;BME280;9959;49.798;9.928;2023-05-20T09:37:54;99697.88;;;21.48;49.30
19624;BME280;9959;49.798;9.928;2023-05-20T09:40:26;99703.47;;;22.16;46.73
19624;BME280;9959;49.798;9.928;2023-05-20T09:43:04;99703.19;;;21.78;47.97
19624;BME280;9959;49.798;9.928;2023-05-20T09:45:33;99711.13;;;22.82;45.87
19624;BME280;9959;49.798;9.928;2023-05-20T09:48:01;99710.03;;;21.32;48.53
19624;BME280;9959;49.798;9.928;2023-05-20T09:50:29;99710.13;;;22.10;47.37
19624;BME280;9959;49.798;9.928;2023-05-20T09:53:02;99707.31;;;21.06;49.97
19624;BME280;9959;49.798;9.928;2023-05-20T09:55:29;99701.44;;;21.43;49.05
19624;BME280;9959;49.798;9.928;2023-05-20T09:58:01;99697.59;;;21.44;48.99
19624;BME280;9959;49.798;9.928;2023-05-20T10:00:28;99699.91;;;21.17;50.48
19624;BME280;9959;49.798;9.928;2023-05-20T10:02:56;99692.72;;;21.36;49.61
19624;BME280;9959;49.798;9.928;2023-05-20T10:05:24;99684.28;;;21.17;49.88
19624;BME280;9959;49.798;9.928;2023-05-20T10:11:05;99670.59;;;21.12;50.48
19624;BME280;9959;49.798;9.928;2023-05-20T10:14:06;99672.38;;;20.78;51.50
19624;BME280;9959;49.798;9.928;2023-05-20T10:16:50;99676.44;;;21.94;48.73
19624;BME280;9959;49.798;9.928;2023-05-20T10:19:29;99663.44;;;21.76;49.16
19624;BME280;9959;49.798;9.928;2023-05-20T10:22:03;99665.97;;;21.62;49.70
19624;BME280;9959;49.798;9.928;2023-05-20T10:24:35;99668.81;;;22.54;47.23
19624;BME280;9959;49.798;9.928;2023-05-20T10:27:07;99651.53;;;22.24;47.73
19624;BME280;9959;49.798;9.928;2023-05-20T10:29:50;99648.66;;;22.11;47.01
19624;BME280;9959;49.798;9.928;2023-05-20T10:32:28;99638.94;;;23.00;45.33
19624;BME280;9959;49.798;9.928;2023-05-20T10:35:01;99648.78;;;22.53;46.50
19624;BME280;9959;49.798;9.928;2023-05-20T10:37:43;99632.59;;;22.81;45.42
19624;BME280;9959;49.798;9.928;2023-05-20T10:40:15;99655.53;;;22.66;45.89
19624;BME280;9959;49.798;9.928;2023-05-20T10:42:44;99644.75;;;22.17;46.53
19624;BME280;9959;49.798;9.928;2023-05-20T10:45:11;99639.16;;;22.27;46.91
19624;BME280;9959;49.798;9.928;2023-05-20T10:47:53;99628.44;;;21.96;47.07
19624;BME280;9959;49.798;9.928;2023-05-20T10:50:37;99629.81;;;22.57;46.42
19624;BME280;9959;49.798;9.928;2023-05-20T10:53:10;99627.16;;;22.71;45.21
19624;BME280;9959;49.798;9.928;2023-05-20T10:55:52;99628.00;;;22.71;45.58
19624;BME280;9959;49.798;9.928;2023-05-20T10:58:21;99625.03;;;22.68;45.42
19624;BME280;9959;49.798;9.928;2023-05-20T11:00:55;99623.44;;;22.09;46.05
19624;BME280;9959;49.798;9.928;2023-05-20T11:03:22;99635.09;;;22.48;45.07
19624;BME280;9959;49.798;9.928;2023-05-20T11:05:51;99619.19;;;23.59;43.17
19624;BME280;9959;49.798;9.928;2023-05-20T11:08:17;99615.31;;;23.42;43.41
19624;BME280;9959;49.798;9.928;2023-05-20T11:10:55;99606.81;;;23.94;41.89
19624;BME280;9959;49.798;9.928;2023-05-20T11:13:23;99603.84;;;22.97;44.51
19624;BME280;9959;49.798;9.928;2023-05-20T11:15:51;99601.34;;;23.76;42.83
19624;BME280;9959;49.798;9.928;2023-05-20T11:18:18;99609.66;;;23.52;42.96
19624;BME280;9959;49.798;9.928;2023-05-20T11:20:45;99606.63;;;22.92;44.68
19624;BME280;9959;49.798;9.928;2023-05-20T11:23:13;99608.03;;;22.89;45.04
19624;BME280;9959;49.798;9.928;2023-05-20T11:25:41;99601.63;;;23.74;42.67
19624;BME280;9959;49.798;9.928;2023-05-20T11:28:12;99603.75;;;24.42;40.70
19624;BME280;9959;49.798;9.928;2023-05-20T11:30:41;99586.22;;;24.38;41.01
19624;BME280;9959;49.798;9.928;2023-05-20T11:33:11;99584.09;;;23.70;41.72
19624;BME280;9959;49.798;9.928;2023-05-20T11:35:48;99588.09;;;24.56;41.03
19624;BME280;9959;49.798;9.928;2023-05-20T11:38:17;99590.34;;;23.57;42.73
19624;BME280;9959;49.798;9.928;2023-05-20T11:40:45;99575.72;;;24.40;41.01
19624;BME280;9959;49.798;9.928;2023-05-20T11:43:16;99567.78;;;24.52;40.54
19624;BME280;9959;49.798;9.928;2023-05-20T11:45:45;99585.53;;;23.81;42.24
19624;BME280;9959;49.798;9.928;2023-05-20T11:48:12;99569.09;;;23.44;43.04
19624;BME280;9959;49.798;9.928;2023-05-20T11:50:42;99575.00;;;22.94;44.08
19624;BME280;9959;49.798;9.928;2023-05-20T11:53:13;99576.66;;;23.52;43.23
19624;BME280;9959;49.798;9.928;2023-05-20T11:55:48;99567.78;;;24.52;40.85
19624;BME280;9959;49.798;9.928;2023-05-20T11:58:17;99576.22;;;24.70;40.09
19624;BME280;9959;49.798;9.928;2023-05-20T12:00:44;99576.66;;;25.40;39.04
19624;BME280;9959;49.798;9.928;2023-05-20T12:03:22;99567.22;;;25.77;37.73
19624;BME280;9959;49.798;9.928;2023-05-20T12:05:49;99578.34;;;25.63;37.76
19624;BME280;9959;49.798;9.928;2023-05-20T12:08:19;99570.44;;;24.57;40.36
19624;BME280;9959;49.798;9.928;2023-05-20T12:10:46;99561.78;;;24.18;41.26
19624;BME280;9959;49.798;9.928;2023-05-20T12:13:13;99564.69;;;23.61;42.49
19624;BME280;9959;49.798;9.928;2023-05-20T12:15:40;99557.34;;;24.63;40.88
19624;BME280;9959;49.798;9.928;2023-05-20T12:18:06;99556.34;;;24.86;39.84
19624;BME280;9959;49.798;9.928;2023-05-20T12:20:34;99556.69;;;25.21;39.17
19624;BME280;9959;49.798;9.928;2023-05-20T12:23:03;99550.75;;;25.27;39.13
19624;BME280;9959;49.798;9.928;2023-05-20T12:25:30;99554.19;;;25.11;40.24
19624;BME280;9959;49.798;9.928;2023-05-20T12:27:57;99550.31;;;24.98;39.33
19624;BME280;9959;49.798;9.928;2023-05-20T12:30:24;99550.63;;;24.28;41.13
19624;BME280;9959;49.798;9.928;2023-05-20T12:32:51;99545.72;;;24.80;40.70
19624;BME280;9959;49.798;9.928;2023-05-20T12:35:39;99541.97;;;25.48;39.02
19624;BME280;9959;49.798;9.928;2023-05-20T12:38:07;99541.34;;;25.28;39.48
19624;BME280;9959;49.798;9.928;2023-05-20T12:40:35;99542.13;;;25.87;37.20
19624;BME280;9959;49.798;9.928;2023-05-20T12:43:04;99544.22;;;25.82;38.26
19624;BME280;9959;49.798;9.928;2023-05-20T12:45:31;99537.19;;;25.76;38.34
19624;BME280;9959;49.798;9.928;2023-05-20T12:47:59;99540.25;;;25.96;37.30
19624;BME280;9959;49.798;9.928;2023-05-20T12:50:26;99532.09;;;26.62;36.54
19624;BME280;9959;49.798;9.928;2023-05-20T12:52:53;99534.38;;;25.89;37.33
19624;BME280;9959;49.798;9.928;2023-05-20T12:55:21;99532.66;;;24.99;39.65
19624;BME280;9959;49.798;9.928;2023-05-20T12:57:48;99539.81;;;24.45;40.75
19624;BME280;9959;49.798;9.928;2023-05-20T13:00:16;99539.09;;;24.26;40.79
19624;BME280;9959;49.798;9.928;2023-05-20T13:02:43;99536.41;;;25.03;39.45
19624;BME280;9959;49.798;9.928;2023-05-20T13:05:10;99529.81;;;24.63;39.69
19624;BME280;9959;49.798;9.928;2023-05-20T13:07:37;99526.66;;;26.40;36.84
19624;BME280;9959;49.798;9.928;2023-05-20T13:10:05;99536.06;;;26.78;35.73
19624;BME280;9959;49.798;9.928;2023-05-20T13:12:33;99537.06;;;26.12;36.72
19624;BME280;9959;49.798;9.928;2023-05-20T13:15:00;99527.94;;;25.58;37.90
19624;BME280;9959;49.798;9.928;2023-05-20T13:17:27;99521.31;;;25.37;38.36
19624;BME280;9959;49.798;9.928;2023-05-20T13:19:54;99524.66;;;25.70;38.09